Wetterdaten Neuhaus/Waldnaab

^

Wetter Neuhaus/WN - aktuelle & historische Daten
 
tägl. Zusammenfassung für den 13. Dezember 2019
« minus 1 Tag
plus 1 Tag »
tägl. wöchentl. monatl. jährl.
  Aktuell: Höchstwert: Tiefstwert: Durchschnitt:
Temperatur: -0.1 °C 1.0 °C -0.4 °C 0.3 °C
Taupunkt: -0.2 °C 0.9 °C -0.5 °C 0.2 °C
Luftfeuchte: 99% 99% 99% 99%
Windgeschwindigkeit: 0.0km/h 1.4km/h 0.0km/h 0km/h
Windböe: 0.0km/h 4.0km/h - -
Windruhig - - ONO
Druck: 985.3 hPa 996.8 hPa 985.3 hPa -
Niederschlag: 0.0 mm      














tabellarische Daten für den 13. Dezember 2019
Zeit Temperatur Taupunkt Luftdruck Wind Windgeschwindigkeit Windböe Luftfeuchte Regen (pro h) Solar Bedingungen
00:00 1.0 °C 0.9 °C 996.8 hPa ruhig     99% 0.0 mm 0.00 W/m2
00:05 1.0 °C 0.9 °C 996.5 hPa ruhig     99% 0.0 mm 0.00 W/m2
00:10 1.0 °C 0.9 °C 996.5 hPa ruhig     99% 0.0 mm 0.00 W/m2
00:15 1.0 °C 0.9 °C 996.5 hPa ruhig     99% 0.0 mm 0.00 W/m2
00:20 1.0 °C 0.9 °C 996.5 hPa ruhig     99% 0.0 mm 0.00 W/m2
00:25 0.9 °C 0.8 °C 996.2 hPa ruhig     99% 0.0 mm 0.00 W/m2
00:30 0.9 °C 0.8 °C 995.8 hPa ruhig     99% 0.0 mm 0.00 W/m2
00:35 0.9 °C 0.8 °C 995.8 hPa ruhig     99% 0.0 mm 0.00 W/m2
00:40 0.9 °C 0.8 °C 995.5 hPa ruhig     99% 0.0 mm 0.00 W/m2
00:45 0.9 °C 0.8 °C 995.8 hPa ruhig     99% 0.0 mm 0.00 W/m2
00:50 0.9 °C 0.8 °C 995.5 hPa ruhig     99% 0.0 mm 0.00 W/m2
00:55 0.9 °C 0.8 °C 995.1 hPa ruhig     99% 0.0 mm 0.00 W/m2
01:00 0.9 °C 0.8 °C 995.1 hPa ruhig     99% 0.0 mm 0.00 W/m2
01:05 0.8 °C 0.7 °C 995.1 hPa ruhig     99% 0.0 mm 0.00 W/m2
01:10 0.8 °C 0.7 °C 995.1 hPa ruhig     99% 0.0 mm 0.00 W/m2
01:15 0.7 °C 0.6 °C 994.8 hPa ruhig     99% 0.0 mm 0.00 W/m2
01:20 0.7 °C 0.6 °C 994.8 hPa ruhig     99% 0.0 mm 0.00 W/m2
01:25 0.7 °C 0.6 °C 994.5 hPa ruhig     99% 0.0 mm 0.00 W/m2
01:30 0.6 °C 0.5 °C 994.5 hPa ruhig     99% 0.0 mm 0.00 W/m2
01:35 0.6 °C 0.5 °C 994.5 hPa ruhig     99% 0.0 mm 0.00 W/m2
01:40 0.6 °C 0.5 °C 994.5 hPa ruhig     99% 0.0 mm 0.00 W/m2
01:45 0.5 °C 0.4 °C 994.5 hPa ruhig     99% 0.0 mm 0.00 W/m2
01:50 0.5 °C 0.4 °C 994.1 hPa ruhig     99% 0.0 mm 0.00 W/m2
01:55 0.5 °C 0.4 °C 993.8 hPa ruhig     99% 0.0 mm 0.00 W/m2
02:00 0.5 °C 0.4 °C 993.8 hPa ruhig     99% 0.0 mm 0.00 W/m2
02:05 0.5 °C 0.4 °C 993.8 hPa ruhig     99% 0.0 mm 0.00 W/m2
02:10 0.5 °C 0.4 °C 993.1 hPa ruhig     99% 0.0 mm 0.00 W/m2
02:15 0.5 °C 0.4 °C 993.5 hPa ruhig     99% 0.0 mm 0.00 W/m2
02:20 0.5 °C 0.4 °C 993.5 hPa ruhig     99% 0.0 mm 0.00 W/m2
02:25 0.5 °C 0.4 °C 993.5 hPa ruhig     99% 0.0 mm 0.00 W/m2
02:30 0.5 °C 0.4 °C 993.1 hPa ruhig     99% 0.0 mm 0.00 W/m2
02:35 0.5 °C 0.4 °C 993.1 hPa ruhig     99% 0.0 mm 0.00 W/m2
02:40 0.5 °C 0.4 °C 992.8 hPa ruhig     99% 0.0 mm 0.00 W/m2
02:45 0.5 °C 0.4 °C 992.8 hPa ruhig     99% 0.0 mm 0.00 W/m2
02:50 0.5 °C 0.4 °C 992.8 hPa ruhig     99% 0.0 mm 0.00 W/m2
02:55 0.5 °C 0.4 °C 992.4 hPa ruhig     99% 0.0 mm 0.00 W/m2
03:00 0.5 °C 0.4 °C 992.4 hPa ruhig     99% 0.0 mm 0.00 W/m2
03:05 0.5 °C 0.4 °C 992.1 hPa ruhig     99% 0.0 mm 0.00 W/m2
03:10 0.6 °C 0.5 °C 992.1 hPa ruhig     99% 0.0 mm 0.00 W/m2
03:15 0.6 °C 0.5 °C 991.8 hPa ruhig     99% 0.0 mm 0.00 W/m2
03:20 0.6 °C 0.5 °C 992.1 hPa ruhig     99% 0.0 mm 0.00 W/m2
03:25 0.6 °C 0.5 °C 991.8 hPa ENE 1.4 km/h 4.0 km/h 99% 0.0 mm 0.00 W/m2
03:30 0.7 °C 0.6 °C 991.4 hPa ruhig     99% 0.0 mm 0.00 W/m2
03:35 0.7 °C 0.6 °C 991.4 hPa ruhig     99% 0.0 mm 0.00 W/m2
03:40 0.7 °C 0.6 °C 991.4 hPa ruhig     99% 0.0 mm 0.00 W/m2
03:45 0.7 °C 0.6 °C 991.4 hPa ruhig     99% 0.0 mm 0.00 W/m2
03:50 0.6 °C 0.5 °C 991.4 hPa ruhig     99% 0.0 mm 0.00 W/m2
03:55 0.6 °C 0.5 °C 991.1 hPa ruhig     99% 0.0 mm 0.00 W/m2
04:00 0.6 °C 0.5 °C 990.7 hPa ruhig     99% 0.0 mm 0.00 W/m2
04:05 0.5 °C 0.4 °C 991.1 hPa ruhig     99% 0.0 mm 0.00 W/m2
04:10 0.5 °C 0.4 °C 990.4 hPa ruhig     99% 0.0 mm 0.00 W/m2
04:15 0.5 °C 0.4 °C 990.4 hPa ruhig     99% 0.0 mm 0.00 W/m2
04:20 0.4 °C 0.3 °C 990.4 hPa ruhig     99% 0.0 mm 0.00 W/m2
04:25 0.4 °C 0.3 °C 990.1 hPa ruhig     99% 0.0 mm 0.00 W/m2
04:30 0.4 °C 0.3 °C 990.1 hPa ruhig     99% 0.0 mm 0.00 W/m2
04:35 0.4 °C 0.3 °C 990.1 hPa ruhig     99% 0.0 mm 0.00 W/m2
04:40 0.3 °C 0.2 °C 989.7 hPa ruhig     99% 0.0 mm 0.00 W/m2
04:45 0.3 °C 0.2 °C 989.7 hPa ruhig     99% 0.0 mm 0.00 W/m2
04:50 0.3 °C 0.2 °C 989.7 hPa ruhig     99% 0.0 mm 0.00 W/m2
04:55 0.2 °C 0.1 °C 989.7 hPa ruhig     99% 0.0 mm 0.00 W/m2
05:00 0.2 °C 0.1 °C 989.4 hPa ruhig     99% 0.0 mm 0.00 W/m2
05:05 0.2 °C 0.1 °C 989.4 hPa ruhig     99% 0.0 mm 0.00 W/m2
05:10 0.1 °C 0.0 °C 989.4 hPa ruhig     99% 0.0 mm 0.00 W/m2
05:15 0.1 °C 0.0 °C 989.1 hPa ruhig     99% 0.0 mm 0.00 W/m2
05:20 0.1 °C 0.0 °C 989.1 hPa ruhig     99% 0.0 mm 0.00 W/m2
05:25 0.1 °C 0.0 °C 988.7 hPa ruhig     99% 0.0 mm 0.00 W/m2
05:30 0.1 °C 0.0 °C 988.7 hPa ruhig     99% 0.0 mm 0.00 W/m2
05:35 0.1 °C 0.0 °C 988.4 hPa ruhig     99% 0.0 mm 0.00 W/m2
05:40 0.1 °C 0.0 °C 988.4 hPa ruhig     99% 0.0 mm 0.00 W/m2
05:45 0.0 °C -0.1 °C 988.0 hPa ruhig     99% 0.0 mm 0.00 W/m2
05:50 0.0 °C -0.1 °C 988.0 hPa ruhig     99% 0.0 mm 0.00 W/m2
05:55 0.0 °C -0.1 °C 988.0 hPa ruhig     99% 0.0 mm 0.00 W/m2
06:00 0.0 °C -0.1 °C 988.4 hPa ruhig     99% 0.0 mm 0.00 W/m2
06:05 0.0 °C -0.1 °C 988.0 hPa ruhig     99% 0.0 mm 0.00 W/m2
06:10 0.0 °C -0.1 °C 988.0 hPa ruhig     99% 0.0 mm 0.00 W/m2
06:15 -0.1 °C -0.2 °C 988.0 hPa ruhig     99% 0.0 mm 0.00 W/m2
06:20 -0.1 °C -0.2 °C 988.0 hPa ruhig     99% 0.0 mm 0.00 W/m2
06:25 -0.2 °C -0.3 °C 988.0 hPa ruhig     99% 0.0 mm 0.00 W/m2
06:30 -0.3 °C -0.4 °C 988.0 hPa ruhig     99% 0.0 mm 0.00 W/m2
06:35 -0.3 °C -0.4 °C 987.7 hPa ruhig     99% 0.0 mm 0.00 W/m2
06:40 -0.4 °C -0.5 °C 988.0 hPa ruhig     99% 0.0 mm 0.00 W/m2
06:45 -0.4 °C -0.5 °C 987.7 hPa ruhig     99% 0.0 mm 0.00 W/m2
06:50 -0.4 °C -0.5 °C 987.4 hPa ruhig     99% 0.0 mm 0.00 W/m2
06:55 -0.4 °C -0.5 °C 987.4 hPa ruhig     99% 0.0 mm 0.00 W/m2
07:00 -0.4 °C -0.5 °C 987.4 hPa ruhig     99% 0.0 mm 0.00 W/m2
07:05 -0.4 °C -0.5 °C 987.7 hPa ruhig     99% 0.0 mm 0.00 W/m2
07:10 -0.4 °C -0.5 °C 987.4 hPa ruhig     99% 0.0 mm 0.00 W/m2
07:15 -0.4 °C -0.5 °C 987.4 hPa ruhig     99% 0.0 mm 0.00 W/m2
07:20 -0.4 °C -0.5 °C 987.4 hPa ruhig     99% 0.0 mm 0.00 W/m2
07:25 -0.4 °C -0.5 °C 987.0 hPa ruhig     99% 0.0 mm 0.00 W/m2
07:30 -0.3 °C -0.4 °C 987.4 hPa ruhig     99% 0.0 mm 0.00 W/m2
07:35 -0.3 °C -0.4 °C 987.0 hPa ruhig     99% 0.0 mm 0.00 W/m2
07:40 -0.3 °C -0.4 °C 987.0 hPa ruhig     99% 0.0 mm 0.00 W/m2
07:45 -0.3 °C -0.4 °C 986.7 hPa ruhig     99% 0.0 mm 0.00 W/m2
07:50 -0.2 °C -0.3 °C 986.7 hPa ruhig     99% 0.0 mm 0.00 W/m2
07:55 -0.2 °C -0.3 °C 986.3 hPa ruhig     99% 0.0 mm 0.00 W/m2
08:00 -0.2 °C -0.3 °C 986.3 hPa ruhig     99% 0.0 mm 0.00 W/m2
08:05 -0.2 °C -0.3 °C 986.3 hPa ruhig     99% 0.0 mm 0.00 W/m2
08:10 -0.2 °C -0.3 °C 986.3 hPa ruhig     99% 0.0 mm 1.02 W/m2
08:15 -0.2 °C -0.3 °C 986.0 hPa ruhig     99% 0.0 mm 3.10 W/m2
08:20 -0.2 °C -0.3 °C 986.0 hPa ruhig     99% 0.0 mm 4.52 W/m2
08:25 -0.2 °C -0.3 °C 986.3 hPa ruhig     99% 0.0 mm 5.67 W/m2
08:30 -0.2 °C -0.3 °C 985.7 hPa ruhig     99% 0.0 mm 5.83 W/m2
08:35 -0.2 °C -0.3 °C 985.7 hPa ruhig     99% 0.0 mm 5.47 W/m2
08:40 -0.2 °C -0.3 °C 985.3 hPa ruhig     99% 0.0 mm 6.39 W/m2
08:45 -0.1 °C -0.2 °C 985.3 hPa ruhig     99% 0.0 mm 8.35 W/m2
08:50 -0.1 °C -0.2 °C 985.3 hPa ruhig     99% 0.0 mm 10.22 W/m2
08:55 -0.1 °C -0.2 °C 985.3 hPa ruhig     99% 0.0 mm 12.90 W/m2
Neuhaus/WN - Oberpfalz